Terminal Aerodrome Forecast
Issued by NWS

Home | Current Version | Previous Version | Text Only | Print | Product List | Glossary On
Versions: 1 2 3 4 5 6 7 8 9 10 11 12 13 14 15 16 17 18 19 20 21 22 23 24
656
FTUS44 KLIX 270522
TAFGPT
TAF
KGPT 270522Z 2706/2806 15009KT P6SM BKN008 OVC025
     FM271500 17009KT P6SM BKN025 PROB30 2715/2718 4SM -SHRA OVC015
     FM271800 17011KT P6SM BKN035 PROB30 2718/2722 4SM -SHRA OVC025=

USA.gov is the U.S. government's official web portal to all federal, state and local government web resources and services.